Doris Schepers — CQZY — position and weather

sailwx.info

Track history (hours):
 
Tides and Currents Weather Stations Pressure Air Temp Water Temp Dewpoint Dewpoint Depression Visibility Wind Speed Wind Dir Waves Ship Positions

Doris Schepers

Last reported at 2018-Apr-22 14:40 UTC. Time now 2018-Apr-23 21:24 UTC.
Position N 35°57' W 005°34'.

Length 141 m; draft 7.1 m.

Type: Ship (hazmat cat A). MMSI: 255805878.

Date/timePositionNaut miles runAvg speedWind from/ knotsBaromVisibWave heightAir tempDewpointWater temp
2018-Apr-22 14:40N 35°57' W 005°34'214.6
2018-Apr-22 14:30N 35°58' W 005°31'714.1
2018-Apr-22 14:00N 36°00' W 005°23'714.6
2018-Apr-22 13:30N 36°02' W 005°15'20815.3
2018-Apr-21 23:53N 37°10' W 001°09'616.6
2018-Apr-21 23:30N 37°14' W 001°03'916.4
2018-Apr-21 22:58N 37°20' W 000°55'716.1
2018-Apr-21 22:30N 37°25' W 000°48'1516.0
2018-Apr-21 21:35N 37°34' W 000°34'114.9
2018-Apr-21 21:30N 37°36' W 000°33'816.0
2018-Apr-21 21:00N 37°43' W 000°31'816.1
2018-Apr-21 20:30N 37°51' W 000°29'816.1
2018-Apr-21 20:00N 37°59' W 000°27'816.2
2018-Apr-21 19:30N 38°07' W 000°25'13 2.0
2018-Apr-21 12:56N 38°20' W 000°23'18415.9
2018-Apr-21 01:21N 40°51' E 001°53'616.6
2018-Apr-21 01:00N 40°56' E 001°56'817.1
2018-Apr-21 00:31N 41°04' E 002°02'816.8
2018-Apr-21 00:01N 41°11' E 002°07'815.8
2018-Apr-20 23:30N 41°19' E 002°10'2 3.8
2018-Apr-20 22:59N 41°21' E 002°10'0 0.0
2018-Apr-20 22:29N 41°21' E 002°10'0 0.0
2018-Apr-20 21:59N 41°21' E 002°10'0 0.0
2018-Apr-20 21:29N 41°21' E 002°10'0 0.0
2018-Apr-20 20:59N 41°21' E 002°10'0 0.0
2018-Apr-20 20:23N 41°21' E 002°10'0 0.0
2018-Apr-20 19:59N 41°21' E 002°10'0 0.0
2018-Apr-20 19:29N 41°21' E 002°10'0 0.0
2018-Apr-20 18:59N 41°21' E 002°10'0 0.0
2018-Apr-20 18:29N 41°21' E 002°10'0 0.0
2018-Apr-20 17:59N 41°21' E 002°10'0 0.0
2018-Apr-20 17:29N 41°21' E 002°10'0 0.0
2018-Apr-20 16:59N 41°21' E 002°10'0 0.0
2018-Apr-20 16:29N 41°21' E 002°10'0 0.0
2018-Apr-20 15:56N 41°21' E 002°10'0 0.0
2018-Apr-20 15:29N 41°21' E 002°10'0 0.0
2018-Apr-20 14:59N 41°21' E 002°10'0 0.0
2018-Apr-20 14:29N 41°21' E 002°10'0 0.0
2018-Apr-20 13:59N 41°21' E 002°10'0 0.0
2018-Apr-20 13:29N 41°21' E 002°10'0 0.0
2018-Apr-20 12:59N 41°21' E 002°10'0 0.0
2018-Apr-20 12:29N 41°21' E 002°10'0 0.0
2018-Apr-20 11:59N 41°21' E 002°10'0 0.1
2018-Apr-20 11:30N 41°21' E 002°10'4 7.3
2018-Apr-20 11:00N 41°17' E 002°11'4 7.1
2018-Apr-20 10:30N 41°14' E 002°14'4 7.1
2018-Apr-20 10:00N 41°17' E 002°17'714.7
2018-Apr-20 09:31N 41°20' E 002°26'815.1
2018-Apr-20 09:01N 41°23' E 002°35'22515.1
2018-Apr-19 18:03N 43°10' E 007°02'116.3
2018-Apr-19 18:01N 43°11' E 007°03'916.2
2018-Apr-19 17:29N 43°15' E 007°13'815.9
2018-Apr-19 17:01N 43°19' E 007°22'3615.3
2018-Apr-19 14:38N 43°40' E 008°03'216.2
2018-Apr-19 14:30N 43°41' E 008°05'1116.2
2018-Apr-19 13:51N 43°49' E 008°16'516.1
2018-Apr-19 13:31N 43°53' E 008°21'815.8
2018-Apr-19 13:01N 43°58' E 008°29'815.7
2018-Apr-19 12:31N 44°04' E 008°36'816.2
2018-Apr-19 12:01N 44°10' E 008°44'816.1
2018-Apr-19 11:31N 44°16' E 008°52'714.6
2018-Apr-19 11:01N 44°22' E 008°57'3 6.9
2018-Apr-19 10:30N 44°24' E 008°53'0 0.2
2018-Apr-19 10:00N 44°24' E 008°53'0 0.0
2018-Apr-19 09:30N 44°24' E 008°53'0 0.0
2018-Apr-19 09:00N 44°24' E 008°53'0 0.0
2018-Apr-19 08:30N 44°24' E 008°53'0 0.0
2018-Apr-19 07:57N 44°24' E 008°53'0 0.0
2018-Apr-19 07:30N 44°24' E 008°53'0 0.0
2018-Apr-19 07:00N 44°24' E 008°53'0 0.0
2018-Apr-19 06:30N 44°24' E 008°53'0 0.0
2018-Apr-19 06:00N 44°24' E 008°53'0 0.0
2018-Apr-19 05:30N 44°24' E 008°53'0 0.0
2018-Apr-19 05:00N 44°24' E 008°53'0 0.0
2018-Apr-19 04:30N 44°24' E 008°53'0 0.0
2018-Apr-19 04:00N 44°24' E 008°53'0 0.0
2018-Apr-19 03:30N 44°24' E 008°53'0 0.0
2018-Apr-19 03:00N 44°24' E 008°53'0 0.0
2018-Apr-19 02:30N 44°24' E 008°53'0 0.0
2018-Apr-19 02:00N 44°24' E 008°53'0 0.0
2018-Apr-19 01:30N 44°24' E 008°53'0 0.0
2018-Apr-19 01:00N 44°24' E 008°53'0 0.0
2018-Apr-19 00:30N 44°24' E 008°53'0 0.0
2018-Apr-19 00:00N 44°24' E 008°53'0 0.0
2018-Apr-18 23:30N 44°24' E 008°53'0 0.0
2018-Apr-18 23:00N 44°24' E 008°53'0 0.0
2018-Apr-18 22:30N 44°24' E 008°53'0 0.0
2018-Apr-18 22:00N 44°24' E 008°53'0 0.0
2018-Apr-18 21:30N 44°24' E 008°53'0 0.0
2018-Apr-18 21:00N 44°24' E 008°53'0 0.0
2018-Apr-18 20:30N 44°24' E 008°53'0 0.0
2018-Apr-18 20:00N 44°24' E 008°53'0 0.0
2018-Apr-18 19:30N 44°24' E 008°53'0 0.1
2018-Apr-18 19:00N 44°24' E 008°53'2 3.8
2018-Apr-18 18:30N 44°24' E 008°56'4 7.6
2018-Apr-18 18:00N 44°20' E 008°58'815.2
2018-Apr-18 17:30N 44°15' E 008°51'815.6
2018-Apr-18 17:00N 44°09' E 008°44'816.0
2018-Apr-18 16:30N 44°03' E 008°36'816.2
2018-Apr-18 16:00N 43°58' E 008°28'2515.8
2018-Apr-18 14:27N 43°41' E 008°03'2916.0
2018-Apr-18 12:39N 43°21' E 007°34'316.3
2018-Apr-18 12:30N 43°19' E 007°31'815.9
2018-Apr-18 12:00N 43°14' E 007°24'1215.6
2018-Apr-18 11:16N 43°05' E 007°13'21916.0
2018-Apr-17 21:31N 41°27' E 002°49'016.7
2018-Apr-17 21:30N 41°26' E 002°48'816.2
2018-Apr-17 21:00N 41°23' E 002°38'816.2
2018-Apr-17 20:31N 41°20' E 002°29'816.2
2018-Apr-17 20:00N 41°17' E 002°18'612.6
2018-Apr-17 19:30N 41°18' E 002°10'2 0.5
2018-Apr-17 14:23N 41°21' E 002°10'0 0.0
2018-Apr-17 12:23N 41°21' E 002°10'0 0.0
2018-Apr-17 11:56N 41°21' E 002°10'0 0.0
2018-Apr-17 11:29N 41°21' E 002°10'0 0.0
2018-Apr-17 10:59N 41°21' E 002°10'2 3.7
2018-Apr-17 10:30N 41°19' E 002°10'5 9.9
2018-Apr-17 10:00N 41°14' E 002°11'611.8
2018-Apr-17 09:30N 41°09' E 002°06'612.1
2018-Apr-17 09:00N 41°04' E 002°02'612.2
2018-Apr-17 08:29N 40°58' E 001°58'201 8.8
2018-Apr-16 09:45N 38°09' W 000°24'415.0
2018-Apr-16 09:29N 38°06' W 000°24'714.9
2018-Apr-16 09:00N 37°58' W 000°25'815.0
2018-Apr-16 08:30N 37°51' W 000°26'815.7
2018-Apr-16 08:00N 37°43' W 000°28'815.2
2018-Apr-16 07:30N 37°36' W 000°29'714.7
2018-Apr-16 07:00N 37°30' W 000°35'815.7
2018-Apr-16 06:30N 37°24' W 000°42'715.2
2018-Apr-16 06:00N 37°19' W 000°49'814.9
2018-Apr-16 05:30N 37°14' W 000°56'815.1
2018-Apr-16 05:00N 37°09' W 001°03'1015.1
2018-Apr-16 04:19N 37°02' W 001°13'19815.1
2018-Apr-15 15:09N 35°60' W 005°07'317.0
2018-Apr-15 15:00N 35°59' W 005°10'917.5
2018-Apr-15 14:30N 35°58' W 005°21'1017.8
2018-Apr-15 13:57N 35°56' W 005°33'916.1
2018-Apr-15 13:22N 35°54' W 005°44'514.9
2018-Apr-15 13:00N 35°52' W 005°50'62514.8
2018-Apr-13 18:46N 29°08' W 015°16'414.2
2018-Apr-13 18:29N 29°05' W 015°20'714.3
2018-Apr-13 18:00N 29°01' W 015°26'714.2
2018-Apr-13 17:31N 28°56' W 015°32'714.4
2018-Apr-13 17:00N 28°52' W 015°38'714.7
2018-Apr-13 16:29N 28°47' W 015°45'714.6
2018-Apr-13 16:00N 28°42' W 015°51'1414.3
2018-Apr-13 15:01N 28°33' W 016°03'10 9.2
2018-Apr-13 13:58N 28°29' W 016°13'0 0.0
2018-Apr-13 13:28N 28°29' W 016°13'0 0.0
2018-Apr-13 12:58N 28°29' W 016°13'0 0.0
2018-Apr-13 12:28N 28°29' W 016°13'0 0.0
2018-Apr-13 11:58N 28°29' W 016°13'0 0.0
2018-Apr-13 11:28N 28°29' W 016°13'0 0.0
2018-Apr-13 10:58N 28°29' W 016°13'0 0.0
2018-Apr-13 10:28N 28°29' W 016°13'0 0.0
2018-Apr-13 09:58N 28°29' W 016°13'0 0.1
2018-Apr-13 09:28N 28°29' W 016°13'0 0.1
2018-Apr-13 08:58N 28°29' W 016°13'0 0.0
2018-Apr-13 08:28N 28°29' W 016°13'0 0.0
2018-Apr-13 07:58N 28°29' W 016°13'0 0.0
2018-Apr-13 07:28N 28°29' W 016°13'0 0.0
2018-Apr-13 06:58N 28°29' W 016°13'0 0.0
2018-Apr-13 06:28N 28°29' W 016°13'0 0.0
2018-Apr-13 05:58N 28°29' W 016°13'1 1.3
2018-Apr-13 05:31N 28°29' W 016°14'4 8.5
2018-Apr-13 05:00N 28°27' W 016°09'713.8
2018-Apr-13 04:30N 28°24' W 016°02'713.1
2018-Apr-13 04:00N 28°22' W 015°55'713.1
2018-Apr-13 03:30N 28°20' W 015°48'612.9
2018-Apr-13 03:00N 28°18' W 015°41'613.1
2018-Apr-13 02:30N 28°16' W 015°34'612.9
2018-Apr-13 02:00N 28°14' W 015°27'510.7
2018-Apr-13 01:30N 28°10' W 015°23'2 4.6
2018-Apr-13 01:00N 28°09' W 015°25'0 0.7
2018-Apr-13 00:30N 28°09' W 015°25'0 0.0
2018-Apr-13 00:00N 28°09' W 015°25'0 0.0
2018-Apr-12 23:21N 28°09' W 015°25'0 0.0
2018-Apr-12 22:51N 28°09' W 015°25'0 0.0
2018-Apr-12 22:21N 28°09' W 015°25'0 0.0
2018-Apr-12 21:54N 28°09' W 015°25'0 0.0
2018-Apr-12 21:24N 28°09' W 015°25'0 0.0
2018-Apr-12 20:54N 28°09' W 015°25'0 0.0
2018-Apr-12 20:24N 28°09' W 015°25'0 0.0
2018-Apr-12 19:54N 28°09' W 015°25'0 0.0
2018-Apr-12 19:24N 28°09' W 015°25'0 0.1
2018-Apr-12 19:00N 28°09' W 015°25'2 4.5
2018-Apr-12 18:30N 28°07' W 015°24'612.4
2018-Apr-12 18:00N 28°10' W 015°17'816.0
2018-Apr-12 17:30N 28°14' W 015°10'816.0
2018-Apr-12 17:00N 28°18' W 015°02'815.6
2018-Apr-12 16:30N 28°22' W 014°54'815.4
2018-Apr-12 16:00N 28°25' W 014°46'815.6
2018-Apr-12 15:30N 28°29' W 014°39'815.5
2018-Apr-12 15:00N 28°33' W 014°31'  
Track history (hours):
 
Tides and Currents Weather Stations Pressure Air Temp Water Temp Dewpoint Dewpoint Depression Visibility Wind Speed Wind Dir Waves Ship Positions

Doris Schepers

Last reported at 2018-Apr-22 14:40 UTC. Time now 2018-Apr-23 21:24 UTC.
Position N 35°57' W 005°34'.

Length 141 m; draft 7.1 m.

Type: Ship (hazmat cat A). MMSI: 255805878.

Date/timePositionNaut miles runAvg speedWind from/ knotsBaromVisibWave heightAir tempDewpointWater temp
2018-Apr-22 14:40N 35°57' W 005°34'214.6
2018-Apr-22 14:30N 35°58' W 005°31'714.1
2018-Apr-22 14:00N 36°00' W 005°23'714.6
2018-Apr-22 13:30N 36°02' W 005°15'20815.3
2018-Apr-21 23:53N 37°10' W 001°09'616.6
2018-Apr-21 23:30N 37°14' W 001°03'916.4
2018-Apr-21 22:58N 37°20' W 000°55'716.1
2018-Apr-21 22:30N 37°25' W 000°48'1516.0
2018-Apr-21 21:35N 37°34' W 000°34'114.9
2018-Apr-21 21:30N 37°36' W 000°33'816.0
2018-Apr-21 21:00N 37°43' W 000°31'816.1
2018-Apr-21 20:30N 37°51' W 000°29'816.1
2018-Apr-21 20:00N 37°59' W 000°27'816.2
2018-Apr-21 19:30N 38°07' W 000°25'13 2.0
2018-Apr-21 12:56N 38°20' W 000°23'18415.9
2018-Apr-21 01:21N 40°51' E 001°53'616.6
2018-Apr-21 01:00N 40°56' E 001°56'817.1
2018-Apr-21 00:31N 41°04' E 002°02'816.8
2018-Apr-21 00:01N 41°11' E 002°07'815.8
2018-Apr-20 23:30N 41°19' E 002°10'2 3.8
2018-Apr-20 22:59N 41°21' E 002°10'0 0.0
2018-Apr-20 22:29N 41°21' E 002°10'0 0.0
2018-Apr-20 21:59N 41°21' E 002°10'0 0.0
2018-Apr-20 21:29N 41°21' E 002°10'0 0.0
2018-Apr-20 20:59N 41°21' E 002°10'0 0.0
2018-Apr-20 20:23N 41°21' E 002°10'0 0.0
2018-Apr-20 19:59N 41°21' E 002°10'0 0.0
2018-Apr-20 19:29N 41°21' E 002°10'0 0.0
2018-Apr-20 18:59N 41°21' E 002°10'0 0.0
2018-Apr-20 18:29N 41°21' E 002°10'0 0.0
2018-Apr-20 17:59N 41°21' E 002°10'0 0.0
2018-Apr-20 17:29N 41°21' E 002°10'0 0.0
2018-Apr-20 16:59N 41°21' E 002°10'0 0.0
2018-Apr-20 16:29N 41°21' E 002°10'0 0.0
2018-Apr-20 15:56N 41°21' E 002°10'0 0.0
2018-Apr-20 15:29N 41°21' E 002°10'0 0.0
2018-Apr-20 14:59N 41°21' E 002°10'0 0.0
2018-Apr-20 14:29N 41°21' E 002°10'0 0.0
2018-Apr-20 13:59N 41°21' E 002°10'0 0.0
2018-Apr-20 13:29N 41°21' E 002°10'0 0.0
2018-Apr-20 12:59N 41°21' E 002°10'0 0.0
2018-Apr-20 12:29N 41°21' E 002°10'0 0.0
2018-Apr-20 11:59N 41°21' E 002°10'0 0.1
2018-Apr-20 11:30N 41°21' E 002°10'4 7.3
2018-Apr-20 11:00N 41°17' E 002°11'4 7.1
2018-Apr-20 10:30N 41°14' E 002°14'4 7.1
2018-Apr-20 10:00N 41°17' E 002°17'714.7
2018-Apr-20 09:31N 41°20' E 002°26'815.1
2018-Apr-20 09:01N 41°23' E 002°35'22515.1
2018-Apr-19 18:03N 43°10' E 007°02'116.3
2018-Apr-19 18:01N 43°11' E 007°03'916.2
2018-Apr-19 17:29N 43°15' E 007°13'815.9
2018-Apr-19 17:01N 43°19' E 007°22'3615.3
2018-Apr-19 14:38N 43°40' E 008°03'216.2
2018-Apr-19 14:30N 43°41' E 008°05'1116.2
2018-Apr-19 13:51N 43°49' E 008°16'516.1
2018-Apr-19 13:31N 43°53' E 008°21'815.8
2018-Apr-19 13:01N 43°58' E 008°29'815.7
2018-Apr-19 12:31N 44°04' E 008°36'816.2
2018-Apr-19 12:01N 44°10' E 008°44'816.1
2018-Apr-19 11:31N 44°16' E 008°52'714.6
2018-Apr-19 11:01N 44°22' E 008°57'3 6.9
2018-Apr-19 10:30N 44°24' E 008°53'0 0.2
2018-Apr-19 10:00N 44°24' E 008°53'0 0.0
2018-Apr-19 09:30N 44°24' E 008°53'0 0.0
2018-Apr-19 09:00N 44°24' E 008°53'0 0.0
2018-Apr-19 08:30N 44°24' E 008°53'0 0.0
2018-Apr-19 07:57N 44°24' E 008°53'0 0.0
2018-Apr-19 07:30N 44°24' E 008°53'0 0.0
2018-Apr-19 07:00N 44°24' E 008°53'0 0.0
2018-Apr-19 06:30N 44°24' E 008°53'0 0.0
2018-Apr-19 06:00N 44°24' E 008°53'0 0.0
2018-Apr-19 05:30N 44°24' E 008°53'0 0.0
2018-Apr-19 05:00N 44°24' E 008°53'0 0.0
2018-Apr-19 04:30N 44°24' E 008°53'0 0.0
2018-Apr-19 04:00N 44°24' E 008°53'0 0.0
2018-Apr-19 03:30N 44°24' E 008°53'0 0.0
2018-Apr-19 03:00N 44°24' E 008°53'0 0.0
2018-Apr-19 02:30N 44°24' E 008°53'0 0.0
2018-Apr-19 02:00N 44°24' E 008°53'0 0.0
2018-Apr-19 01:30N 44°24' E 008°53'0 0.0
2018-Apr-19 01:00N 44°24' E 008°53'0 0.0
2018-Apr-19 00:30N 44°24' E 008°53'0 0.0
2018-Apr-19 00:00N 44°24' E 008°53'0 0.0
2018-Apr-18 23:30N 44°24' E 008°53'0 0.0
2018-Apr-18 23:00N 44°24' E 008°53'0 0.0
2018-Apr-18 22:30N 44°24' E 008°53'0 0.0
2018-Apr-18 22:00N 44°24' E 008°53'0 0.0
2018-Apr-18 21:30N 44°24' E 008°53'0 0.0
2018-Apr-18 21:00N 44°24' E 008°53'0 0.0
2018-Apr-18 20:30N 44°24' E 008°53'0 0.0
2018-Apr-18 20:00N 44°24' E 008°53'0 0.0
2018-Apr-18 19:30N 44°24' E 008°53'0 0.1
2018-Apr-18 19:00N 44°24' E 008°53'2 3.8
2018-Apr-18 18:30N 44°24' E 008°56'4 7.6
2018-Apr-18 18:00N 44°20' E 008°58'815.2
2018-Apr-18 17:30N 44°15' E 008°51'815.6
2018-Apr-18 17:00N 44°09' E 008°44'816.0
2018-Apr-18 16:30N 44°03' E 008°36'816.2
2018-Apr-18 16:00N 43°58' E 008°28'2515.8
2018-Apr-18 14:27N 43°41' E 008°03'2916.0
2018-Apr-18 12:39N 43°21' E 007°34'316.3
2018-Apr-18 12:30N 43°19' E 007°31'815.9
2018-Apr-18 12:00N 43°14' E 007°24'1215.6
2018-Apr-18 11:16N 43°05' E 007°13'21916.0
2018-Apr-17 21:31N 41°27' E 002°49'016.7
2018-Apr-17 21:30N 41°26' E 002°48'816.2
2018-Apr-17 21:00N 41°23' E 002°38'816.2
2018-Apr-17 20:31N 41°20' E 002°29'816.2
2018-Apr-17 20:00N 41°17' E 002°18'612.6
2018-Apr-17 19:30N 41°18' E 002°10'2 0.5
2018-Apr-17 14:23N 41°21' E 002°10'0 0.0
2018-Apr-17 12:23N 41°21' E 002°10'0 0.0
2018-Apr-17 11:56N 41°21' E 002°10'0 0.0
2018-Apr-17 11:29N 41°21' E 002°10'0 0.0
2018-Apr-17 10:59N 41°21' E 002°10'2 3.7
2018-Apr-17 10:30N 41°19' E 002°10'5 9.9
2018-Apr-17 10:00N 41°14' E 002°11'611.8
2018-Apr-17 09:30N 41°09' E 002°06'612.1
2018-Apr-17 09:00N 41°04' E 002°02'612.2
2018-Apr-17 08:29N 40°58' E 001°58'201 8.8
2018-Apr-16 09:45N 38°09' W 000°24'415.0
2018-Apr-16 09:29N 38°06' W 000°24'714.9
2018-Apr-16 09:00N 37°58' W 000°25'815.0
2018-Apr-16 08:30N 37°51' W 000°26'815.7
2018-Apr-16 08:00N 37°43' W 000°28'815.2
2018-Apr-16 07:30N 37°36' W 000°29'714.7
2018-Apr-16 07:00N 37°30' W 000°35'815.7
2018-Apr-16 06:30N 37°24' W 000°42'715.2
2018-Apr-16 06:00N 37°19' W 000°49'814.9
2018-Apr-16 05:30N 37°14' W 000°56'815.1
2018-Apr-16 05:00N 37°09' W 001°03'1015.1
2018-Apr-16 04:19N 37°02' W 001°13'19815.1
2018-Apr-15 15:09N 35°60' W 005°07'317.0
2018-Apr-15 15:00N 35°59' W 005°10'917.5
2018-Apr-15 14:30N 35°58' W 005°21'1017.8
2018-Apr-15 13:57N 35°56' W 005°33'916.1
2018-Apr-15 13:22N 35°54' W 005°44'514.9
2018-Apr-15 13:00N 35°52' W 005°50'62514.8
2018-Apr-13 18:46N 29°08' W 015°16'414.2
2018-Apr-13 18:29N 29°05' W 015°20'714.3
2018-Apr-13 18:00N 29°01' W 015°26'714.2
2018-Apr-13 17:31N 28°56' W 015°32'714.4
2018-Apr-13 17:00N 28°52' W 015°38'714.7
2018-Apr-13 16:29N 28°47' W 015°45'714.6
2018-Apr-13 16:00N 28°42' W 015°51'1414.3
2018-Apr-13 15:01N 28°33' W 016°03'10 9.2
2018-Apr-13 13:58N 28°29' W 016°13'0 0.0
2018-Apr-13 13:28N 28°29' W 016°13'0 0.0
2018-Apr-13 12:58N 28°29' W 016°13'0 0.0
2018-Apr-13 12:28N 28°29' W 016°13'0 0.0
2018-Apr-13 11:58N 28°29' W 016°13'0 0.0
2018-Apr-13 11:28N 28°29' W 016°13'0 0.0
2018-Apr-13 10:58N 28°29' W 016°13'0 0.0
2018-Apr-13 10:28N 28°29' W 016°13'0 0.0
2018-Apr-13 09:58N 28°29' W 016°13'0 0.1
2018-Apr-13 09:28N 28°29' W 016°13'0 0.1
2018-Apr-13 08:58N 28°29' W 016°13'0 0.0
2018-Apr-13 08:28N 28°29' W 016°13'0 0.0
2018-Apr-13 07:58N 28°29' W 016°13'0 0.0
2018-Apr-13 07:28N 28°29' W 016°13'0 0.0
2018-Apr-13 06:58N 28°29' W 016°13'0 0.0
2018-Apr-13 06:28N 28°29' W 016°13'0 0.0
2018-Apr-13 05:58N 28°29' W 016°13'1 1.3
2018-Apr-13 05:31N 28°29' W 016°14'4 8.5
2018-Apr-13 05:00N 28°27' W 016°09'713.8
2018-Apr-13 04:30N 28°24' W 016°02'713.1
2018-Apr-13 04:00N 28°22' W 015°55'713.1
2018-Apr-13 03:30N 28°20' W 015°48'612.9
2018-Apr-13 03:00N 28°18' W 015°41'613.1
2018-Apr-13 02:30N 28°16' W 015°34'612.9
2018-Apr-13 02:00N 28°14' W 015°27'510.7
2018-Apr-13 01:30N 28°10' W 015°23'2 4.6
2018-Apr-13 01:00N 28°09' W 015°25'0 0.7
2018-Apr-13 00:30N 28°09' W 015°25'0 0.0
2018-Apr-13 00:00N 28°09' W 015°25'0 0.0
2018-Apr-12 23:21N 28°09' W 015°25'0 0.0
2018-Apr-12 22:51N 28°09' W 015°25'0 0.0
2018-Apr-12 22:21N 28°09' W 015°25'0 0.0
2018-Apr-12 21:54N 28°09' W 015°25'0 0.0
2018-Apr-12 21:24N 28°09' W 015°25'0 0.0
2018-Apr-12 20:54N 28°09' W 015°25'0 0.0
2018-Apr-12 20:24N 28°09' W 015°25'0 0.0
2018-Apr-12 19:54N 28°09' W 015°25'0 0.0
2018-Apr-12 19:24N 28°09' W 015°25'0 0.1
2018-Apr-12 19:00N 28°09' W 015°25'2 4.5
2018-Apr-12 18:30N 28°07' W 015°24'612.4
2018-Apr-12 18:00N 28°10' W 015°17'816.0
2018-Apr-12 17:30N 28°14' W 015°10'816.0
2018-Apr-12 17:00N 28°18' W 015°02'815.6
2018-Apr-12 16:30N 28°22' W 014°54'815.4
2018-Apr-12 16:00N 28°25' W 014°46'815.6
2018-Apr-12 15:30N 28°29' W 014°39'815.5
2018-Apr-12 15:00N 28°33' W 014°31'  

Dump ship's entire track history